Time;durP1;ratioP1;P1;durP2;ratioP2;P2;SDS_P1;SDS_P2;PMS_P1;PMS_P2;Temp;Humidity;BMP_temperature;BMP_pressure;BME280_temperature;BME280_humidity;BME280_pressure;Samples;Min_cycle;Max_cycle;Signal;HPM_P1;HPM_P2
2023/08/26 00:03:21;;;;;;;;;;;;;;;15.55;98.91113;100947.4;;;;-78
2023/08/26 00:05:21;;;;;;;8.1;4.3;;;;;;;;;;;;;-80
2023/08/26 00:08:16;;;;;;;;;;;;;;;15.55;98.78906;100944.9;;;;-81
2023/08/26 00:13:18;;;;;;;;;;;;;;;15.54;99.43262;100931.8;;;;-80
2023/08/26 00:18:16;;;;;;;;;;;;;;;15.5;97.07422;100937.6;;;;-80
2023/08/26 00:23:16;;;;;;;;;;;;;;;15.51;98.00195;100932.9;;;;-80
2023/08/26 00:28:16;;;;;;;;;;;;;;;15.63;100;100938.3;;;;-80
2023/08/26 00:33:16;;;;;;;;;;;;;;;15.74;100;100939;;;;-79
2023/08/26 00:35:24;;;;;;;11.2;4.4;;;;;;;;;;;;;-81
2023/08/26 00:38:16;;;;;;;;;;;;;;;15.87;99.63965;100942.3;;;;-79
2023/08/26 00:43:16;;;;;;;;;;;;;;;15.96;98.70215;100946.3;;;;-80
2023/08/26 00:48:17;;;;;;;;;;;;;;;16.01;98.54492;100944.5;;;;-79
2023/08/26 00:53:16;;;;;;;;;;;;;;;16.05;97.80664;100932.4;;;;-80
2023/08/26 00:58:16;;;;;;;;;;;;;;;16.12;96.97754;100927.5;;;;-80
2023/08/26 01:03:15;;;;;;;;;;;;;;;16.15;96.9834;100921.9;;;;-80
2023/08/26 01:05:27;;;;;;;9;3.5;;;;;;;;;;;;;-80
2023/08/26 01:08:18;;;;;;;;;;;;;;;16.15;97.06348;100923.5;;;;-79
2023/08/26 01:13:17;;;;;;;;;;;;;;;16.2;96.68066;100921.2;;;;-79
2023/08/26 01:18:17;;;;;;;;;;;;;;;16.23;96.35449;100923.7;;;;-80
2023/08/26 01:23:20;;;;;;;;;;;;;;;16.2;95.66797;100912.5;;;;-80
2023/08/26 01:28:16;;;;;;;;;;;;;;;16.28;96.41992;100923.4;;;;-80
2023/08/26 01:33:23;;;;;;;;;;;;;;;16.25;97.50684;100929.7;;;;-80
2023/08/26 01:35:31;;;;;;;9.4;3.2;;;;;;;;;;;;;-80
2023/08/26 01:38:17;;;;;;;;;;;;;;;16.22;97.46582;100932.2;;;;-79
2023/08/26 01:43:18;;;;;;;;;;;;;;;16.17;97.44629;100928.6;;;;-79
2023/08/26 01:48:16;;;;;;;;;;;;;;;16.18;96.43359;100924.6;;;;-78
2023/08/26 01:53:16;;;;;;;;;;;;;;;16.11;94.86719;100921.4;;;;-80
2023/08/26 01:58:16;;;;;;;;;;;;;;;16.06;94.21973;100922.2;;;;-79
2023/08/26 02:03:16;;;;;;;;;;;;;;;16.03;94.34766;100920.7;;;;-80
2023/08/26 02:05:33;;;;;;;7.7;3.5;;;;;;;;;;;;;-79
2023/08/26 02:08:16;;;;;;;;;;;;;;;16.03;94.01465;100914.3;;;;-81
2023/08/26 02:13:16;;;;;;;;;;;;;;;16.04;94.61719;100914;;;;-79
2023/08/26 02:18:17;;;;;;;;;;;;;;;16.05;93.5791;100913.3;;;;-81
2023/08/26 02:23:16;;;;;;;;;;;;;;;16.02;93.01758;100908.6;;;;-80
2023/08/26 02:28:16;;;;;;;;;;;;;;;16;93.30371;100902.6;;;;-79
2023/08/26 02:33:16;;;;;;;;;;;;;;;15.98;94.83984;100894.9;;;;-81
2023/08/26 02:35:36;;;;;;;7.9;3.8;;;;;;;;;;;;;-79
2023/08/26 02:38:16;;;;;;;;;;;;;;;15.92;94.46973;100896.2;;;;-79
2023/08/26 02:43:16;;;;;;;;;;;;;;;15.89;95.44531;100902.5;;;;-79
2023/08/26 02:48:16;;;;;;;;;;;;;;;15.83;97.30176;100898;;;;-77
2023/08/26 02:53:15;;;;;;;;;;;;;;;15.69;97.97363;100882;;;;-80
2023/08/26 02:58:16;;;;;;;;;;;;;;;15.71;99.7832;100904;;;;-80
2023/08/26 03:03:17;;;;;;;;;;;;;;;15.65;100;100901.3;;;;-80
2023/08/26 03:05:37;;;;;;;12.7;7;;;;;;;;;;;;;-79
2023/08/26 03:08:16;;;;;;;;;;;;;;;15.59;100;100898.1;;;;-80
2023/08/26 03:13:16;;;;;;;;;;;;;;;15.53;100;100897.9;;;;-80
2023/08/26 03:18:16;;;;;;;;;;;;;;;15.38;99.41992;100903.8;;;;-79
2023/08/26 03:23:15;;;;;;;;;;;;;;;15.3;100;100905;;;;-79
2023/08/26 03:28:16;;;;;;;;;;;;;;;15.28;100;100910.1;;;;-78
2023/08/26 03:33:16;;;;;;;;;;;;;;;15.18;100;100914.5;;;;-78
2023/08/26 03:35:41;;;;;;;12.6;7.7;;;;;;;;;;;;;-81
2023/08/26 03:38:16;;;;;;;;;;;;;;;15.12;100;100906.7;;;;-80
2023/08/26 03:43:16;;;;;;;;;;;;;;;15.04;100;100892.7;;;;-80
2023/08/26 03:48:15;;;;;;;;;;;;;;;15.13;100;100893;;;;-80
2023/08/26 03:53:15;;;;;;;;;;;;;;;15.14;100;100900.7;;;;-79
2023/08/26 03:58:16;;;;;;;;;;;;;;;15.14;100;100901.8;;;;-80
2023/08/26 04:03:17;;;;;;;;;;;;;;;15.02;100;100897.8;;;;-80
2023/08/26 04:05:43;;;;;;;9.5;6.8;;;;;;;;;;;;;-79
2023/08/26 04:08:16;;;;;;;;;;;;;;;14.92;100;100900.2;;;;-79
2023/08/26 04:13:30;;;;;;;;;;;;;;;14.87;100;100902.5;;;;-79
2023/08/26 04:18:17;;;;;;;;;;;;;;;14.85;100;100910.1;;;;-81
2023/08/26 04:23:16;;;;;;;;;;;;;;;14.71;100;100906.1;;;;-80
2023/08/26 04:28:16;;;;;;;;;;;;;;;14.63;100;100898.7;;;;-80
2023/08/26 04:33:16;;;;;;;;;;;;;;;14.51;100;100905.6;;;;-79
2023/08/26 04:35:44;;;;;;;14;8.9;;;;;;;;;;;;;-80
2023/08/26 04:38:16;;;;;;;;;;;;;;;14.4;100;100905.7;;;;-80
2023/08/26 04:43:16;;;;;;;;;;;;;;;14.36;100;100895.5;;;;-79
2023/08/26 04:48:16;;;;;;;;;;;;;;;14.33;100;100894.5;;;;-78
2023/08/26 04:53:16;;;;;;;;;;;;;;;14.27;100;100890.9;;;;-80
2023/08/26 04:58:18;;;;;;;;;;;;;;;14.3;100;100907.8;;;;-80
2023/08/26 05:03:16;;;;;;;;;;;;;;;14.3;100;100918.8;;;;-80
2023/08/26 05:05:49;;;;;;;27.7;17;;;;;;;;;;;;;-79
2023/08/26 05:08:16;;;;;;;;;;;;;;;14.35;100;100933.2;;;;-79
2023/08/26 05:13:16;;;;;;;;;;;;;;;14.48;100;100938.6;;;;-79
2023/08/26 05:18:16;;;;;;;;;;;;;;;14.74;100;100934.2;;;;-80
2023/08/26 05:23:16;;;;;;;;;;;;;;;14.93;100;100938.6;;;;-80
2023/08/26 05:28:16;;;;;;;;;;;;;;;14.96;100;100941.3;;;;-79
2023/08/26 05:33:16;;;;;;;;;;;;;;;14.94;100;100944;;;;-78
2023/08/26 05:35:49;;;;;;;20.9;12.6;;;;;;;;;;;;;-78
2023/08/26 05:38:15;;;;;;;;;;;;;;;14.85;100;100958.3;;;;-78
2023/08/26 05:43:16;;;;;;;;;;;;;;;14.76;100;100965.3;;;;-77
2023/08/26 05:48:16;;;;;;;;;;;;;;;14.77;100;100982.4;;;;-77
2023/08/26 05:53:16;;;;;;;;;;;;;;;14.8;100;100987.6;;;;-78
2023/08/26 05:58:16;;;;;;;;;;;;;;;14.81;100;100981.3;;;;-79
2023/08/26 06:03:21;;;;;;;;;;;;;;;14.87;100;100977.7;;;;-79
2023/08/26 06:05:51;;;;;;;33.5;16.5;;;;;;;;;;;;;-79
2023/08/26 06:08:16;;;;;;;;;;;;;;;15.02;100;100984.5;;;;-78
2023/08/26 06:13:15;;;;;;;;;;;;;;;15.12;100;100983.2;;;;-79
2023/08/26 06:18:15;;;;;;;;;;;;;;;15.22;100;100979.7;;;;-79
2023/08/26 06:23:16;;;;;;;;;;;;;;;15.3;100;100975.7;;;;-81
2023/08/26 06:28:15;;;;;;;;;;;;;;;15.43;100;100964.5;;;;-80
2023/08/26 06:33:16;;;;;;;;;;;;;;;15.58;100;100962.3;;;;-79
2023/08/26 06:35:54;;;;;;;27.2;12.8;;;;;;;;;;;;;-79
2023/08/26 06:38:16;;;;;;;;;;;;;;;15.66;100;100962;;;;-79
2023/08/26 06:43:16;;;;;;;;;;;;;;;15.84;100;100962.8;;;;-80
2023/08/26 06:48:16;;;;;;;;;;;;;;;15.88;100;100963.1;;;;-80
2023/08/26 06:53:20;;;;;;;;;;;;;;;16.07;100;100951.3;;;;-79
2023/08/26 06:58:16;;;;;;;;;;;;;;;16.51;100;100947.1;;;;-79
2023/08/26 07:03:18;;;;;;;;;;;;;;;16.62;100;100953.3;;;;-80
2023/08/26 07:05:58;;;;;;;17.4;8.3;;;;;;;;;;;;;-80
2023/08/26 07:08:16;;;;;;;;;;;;;;;16.72;100;100948.3;;;;-79
2023/08/26 07:13:15;;;;;;;;;;;;;;;17.47;95.46777;100964.4;;;;-80
2023/08/26 07:18:16;;;;;;;;;;;;;;;17.13;97.03027;100979.5;;;;-80
2023/08/26 07:23:16;;;;;;;;;;;;;;;17;97.96289;100986.8;;;;-80
2023/08/26 07:28:18;;;;;;;;;;;;;;;16.92;97.88867;100986.1;;;;-82
2023/08/26 07:33:16;;;;;;;;;;;;;;;16.7;97.17188;100988.7;;;;-82
2023/08/26 07:36:03;;;;;;;15.1;5.6;;;;;;;;;;;;;-79
2023/08/26 07:38:17;;;;;;;;;;;;;;;16.58;98.89746;100991.2;;;;-80
2023/08/26 07:43:16;;;;;;;;;;;;;;;16.62;98.28125;100988.5;;;;-79
2023/08/26 07:48:16;;;;;;;;;;;;;;;16.65;98.96484;100984.3;;;;-80
2023/08/26 07:53:16;;;;;;;;;;;;;;;16.48;100;100988.5;;;;-78
2023/08/26 07:58:16;;;;;;;;;;;;;;;16.29;100;101005;;;;-79
2023/08/26 08:03:16;;;;;;;;;;;;;;;15.91;100;101009.2;;;;-79
2023/08/26 08:06:01;;;;;;;20;8.8;;;;;;;;;;;;;-79
2023/08/26 08:08:16;;;;;;;;;;;;;;;15.62;100;101013.1;;;;-78
2023/08/26 08:13:15;;;;;;;;;;;;;;;15.36;100;101017.8;;;;-80
2023/08/26 08:18:16;;;;;;;;;;;;;;;15.16;100;101027.4;;;;-78
2023/08/26 08:23:16;;;;;;;;;;;;;;;14.88;100;101027;;;;-79
2023/08/26 08:28:15;;;;;;;;;;;;;;;14.89;100;101026.1;;;;-80
2023/08/26 08:33:16;;;;;;;;;;;;;;;14.91;100;101028.6;;;;-79
2023/08/26 08:36:03;;;;;;;7.8;3;;;;;;;;;;;;;-77
2023/08/26 08:38:15;;;;;;;;;;;;;;;14.84;100;101027.9;;;;-78
2023/08/26 08:43:16;;;;;;;;;;;;;;;14.67;100;101020.3;;;;-79
2023/08/26 08:48:16;;;;;;;;;;;;;;;14.7;100;101035.3;;;;-79
2023/08/26 08:53:17;;;;;;;;;;;;;;;14.63;100;101033.2;;;;-78
2023/08/26 08:58:17;;;;;;;;;;;;;;;14.55;100;101041.9;;;;-81
2023/08/26 09:03:16;;;;;;;;;;;;;;;14.42;100;101034.4;;;;-79
2023/08/26 09:06:07;;;;;;;14.1;2.1;;;;;;;;;;;;;-79
2023/08/26 09:08:17;;;;;;;;;;;;;;;14.57;100;101036.7;;;;-78
2023/08/26 09:13:15;;;;;;;;;;;;;;;15.05;100;101022.4;;;;-79
2023/08/26 09:18:19;;;;;;;;;;;;;;;15.5;100;101026.3;;;;-79
2023/08/26 09:23:17;;;;;;;;;;;;;;;15.91;100;101035.9;;;;-78
2023/08/26 09:28:16;;;;;;;;;;;;;;;16.26;100;101037.6;;;;-79
2023/08/26 09:33:19;;;;;;;;;;;;;;;16.67;100;101032.9;;;;-80
2023/08/26 09:36:07;;;;;;;4.1;1.4;;;;;;;;;;;;;-80
2023/08/26 09:38:16;;;;;;;;;;;;;;;16.7;100;101037.9;;;;-79
2023/08/26 09:43:16;;;;;;;;;;;;;;;16.54;100;101043.2;;;;-79
2023/08/26 09:48:23;;;;;;;;;;;;;;;16.29;100;101039.5;;;;-79
2023/08/26 09:53:15;;;;;;;;;;;;;;;16.52;100;101039.9;;;;-78
2023/08/26 09:58:16;;;;;;;;;;;;;;;16.39;100;101043.6;;;;-78
2023/08/26 10:03:16;;;;;;;;;;;;;;;16.34;100;101046.6;;;;-79
2023/08/26 10:06:10;;;;;;;7.1;2.4;;;;;;;;;;;;;-79
2023/08/26 10:08:15;;;;;;;;;;;;;;;16.25;100;101042;;;;-77
2023/08/26 10:13:17;;;;;;;;;;;;;;;16.33;100;101051.7;;;;-80
2023/08/26 10:18:19;;;;;;;;;;;;;;;16.86;100;101052.1;;;;-78
2023/08/26 10:23:16;;;;;;;;;;;;;;;17.57;100;101059.1;;;;-81
2023/08/26 10:28:15;;;;;;;;;;;;;;;18.06;94.41797;101046;;;;-79
2023/08/26 10:33:16;;;;;;;;;;;;;;;18.7;88.88184;101040.5;;;;-79
2023/08/26 10:36:20;;;;;;;5.6;2.5;;;;;;;;;;;;;-78
2023/08/26 10:38:17;;;;;;;;;;;;;;;19.3;83.88574;101040.9;;;;-77
2023/08/26 10:43:16;;;;;;;;;;;;;;;19.3;81.05469;101048.2;;;;-79
2023/08/26 10:48:16;;;;;;;;;;;;;;;19.43;84.47363;101041.9;;;;-79
2023/08/26 10:53:21;;;;;;;;;;;;;;;19.23;80.72559;101048.4;;;;-79
2023/08/26 10:58:17;;;;;;;;;;;;;;;19.17;79.53027;101052.1;;;;-78
2023/08/26 11:03:16;;;;;;;;;;;;;;;19.05;79.39648;101050.2;;;;-80
2023/08/26 11:06:19;;;;;;;4.3;2.1;;;;;;;;;;;;;-80
2023/08/26 11:08:16;;;;;;;;;;;;;;;18.93;78.21387;101054;;;;-79
2023/08/26 11:13:15;;;;;;;;;;;;;;;18.46;84.14355;101057.3;;;;-78
2023/08/26 11:18:16;;;;;;;;;;;;;;;18.07;88.90234;101061.3;;;;-79
2023/08/26 11:23:15;;;;;;;;;;;;;;;18.32;88.36719;101069.3;;;;-79
2023/08/26 11:28:15;;;;;;;;;;;;;;;18.6;88.26563;101072.1;;;;-78
2023/08/26 11:33:17;;;;;;;;;;;;;;;18.39;87.51855;101063.1;;;;-78
2023/08/26 11:36:22;;;;;;;3.6;1.7;;;;;;;;;;;;;-79
2023/08/26 11:38:18;;;;;;;;;;;;;;;18.13;85.11816;101079.1;;;;-79
2023/08/26 11:43:17;;;;;;;;;;;;;;;17.77;83.89258;101070.4;;;;-78
2023/08/26 11:48:16;;;;;;;;;;;;;;;17.58;87.46973;101088.7;;;;-79
2023/08/26 11:53:15;;;;;;;;;;;;;;;17.47;89.69336;101105.4;;;;-79
2023/08/26 11:58:16;;;;;;;;;;;;;;;17.58;92.96289;101093.2;;;;-78
2023/08/26 12:03:17;;;;;;;;;;;;;;;17.63;92.68262;101088.1;;;;-77
2023/08/26 12:06:22;;;;;;;4.3;2.1;;;;;;;;;;;;;-79
2023/08/26 12:08:20;;;;;;;;;;;;;;;17.96;93.75977;101082.5;;;;-80
2023/08/26 12:13:15;;;;;;;;;;;;;;;18.63;92.15918;101081.8;;;;-80
2023/08/26 12:18:16;;;;;;;;;;;;;;;19.25;86.22168;101075.1;;;;-79
2023/08/26 12:23:18;;;;;;;;;;;;;;;19.75;79.1582;101079.1;;;;-80
2023/08/26 12:28:17;;;;;;;;;;;;;;;19.73;77.4834;101074;;;;-79
2023/08/26 12:33:16;;;;;;;;;;;;;;;20.01;73.55469;101079.1;;;;-80
2023/08/26 12:36:24;;;;;;;4.6;1.4;;;;;;;;;;;;;-79
2023/08/26 12:38:16;;;;;;;;;;;;;;;19.72;71.67578;101074;;;;-79
2023/08/26 12:43:16;;;;;;;;;;;;;;;19.89;74.33008;101084.9;;;;-79
2023/08/26 12:48:18;;;;;;;;;;;;;;;19.7;74.7959;101076.1;;;;-79
2023/08/26 12:53:15;;;;;;;;;;;;;;;20.27;73.76953;101072.1;;;;-79
2023/08/26 12:58:22;;;;;;;;;;;;;;;20.46;66.63672;101071;;;;-78
2023/08/26 13:03:15;;;;;;;;;;;;;;;20.41;67.86816;101078.6;;;;-78
2023/08/26 13:06:28;;;;;;;3.5;1.1;;;;;;;;;;;;;-78
2023/08/26 13:08:15;;;;;;;;;;;;;;;20.57;68.99512;101083.4;;;;-78
2023/08/26 13:13:15;;;;;;;;;;;;;;;20.46;68.62695;101085.6;;;;-80
2023/08/26 13:18:16;;;;;;;;;;;;;;;20.71;68.05078;101082.8;;;;-79
2023/08/26 13:23:15;;;;;;;;;;;;;;;20.71;66.5625;101079.5;;;;-80
2023/08/26 13:28:16;;;;;;;;;;;;;;;20.91;67.31934;101081;;;;-79
2023/08/26 13:33:15;;;;;;;;;;;;;;;20.79;69.43652;101079.9;;;;-79
2023/08/26 13:36:31;;;;;;;4.7;1.4;;;;;;;;;;;;;-81
2023/08/26 13:38:15;;;;;;;;;;;;;;;20.98;68.40918;101069.3;;;;-80
2023/08/26 13:43:15;;;;;;;;;;;;;;;20.8;70.21191;101068.9;;;;-80
2023/08/26 13:48:15;;;;;;;;;;;;;;;20.57;71.53906;101062.4;;;;-80
2023/08/26 13:53:15;;;;;;;;;;;;;;;20.42;72.5918;101068.2;;;;-79
2023/08/26 13:58:21;;;;;;;;;;;;;;;20.73;71.93848;101071.1;;;;-81
2023/08/26 14:03:15;;;;;;;;;;;;;;;20.61;70.36426;101085.2;;;;-80
2023/08/26 14:06:35;;;;;;;6.5;1.4;;;;;;;;;;;;;-78
2023/08/26 14:08:15;;;;;;;;;;;;;;;20.85;71.65039;101091.5;;;;-80
2023/08/26 14:13:15;;;;;;;;;;;;;;;21.02;67.4834;101077.5;;;;-80
2023/08/26 14:18:15;;;;;;;;;;;;;;;21.33;66.45996;101086.9;;;;-79
2023/08/26 14:23:15;;;;;;;;;;;;;;;21.28;65.83789;101077.1;;;;-81
2023/08/26 14:28:18;;;;;;;;;;;;;;;20.92;66.72949;101075.2;;;;-80
2023/08/26 14:33:17;;;;;;;;;;;;;;;20.89;66.78223;101074.5;;;;-81
2023/08/26 14:36:40;;;;;;;4;1;;;;;;;;;;;;;-78
2023/08/26 14:38:15;;;;;;;;;;;;;;;20.86;65.23047;101076;;;;-80
2023/08/26 14:43:16;;;;;;;;;;;;;;;21.04;64.52734;101079.8;;;;-80
2023/08/26 14:48:16;;;;;;;;;;;;;;;21.4;64.29395;101076;;;;-79
2023/08/26 14:53:15;;;;;;;;;;;;;;;21.49;63.05371;101066.8;;;;-79
2023/08/26 14:58:16;;;;;;;;;;;;;;;21.34;61.50391;101066.7;;;;-79
2023/08/26 15:03:15;;;;;;;;;;;;;;;21.19;62.71582;101068.9;;;;-81
2023/08/26 15:06:43;;;;;;;3.5;1.3;;;;;;;;;;;;;-79
2023/08/26 15:08:15;;;;;;;;;;;;;;;21.28;62.90918;101067.1;;;;-79
2023/08/26 15:13:17;;;;;;;;;;;;;;;21.62;63.92773;101067;;;;-80
2023/08/26 15:18:16;;;;;;;;;;;;;;;21.62;62.71777;101071.5;;;;-80
2023/08/26 15:23:16;;;;;;;;;;;;;;;21.42;63.51074;101065.2;;;;-79
2023/08/26 15:28:16;;;;;;;;;;;;;;;21.74;60.79492;101056;;;;-80
2023/08/26 15:33:16;;;;;;;;;;;;;;;21.34;62.70313;101050.5;;;;-80
2023/08/26 15:36:47;;;;;;;4.2;1.3;;;;;;;;;;;;;-79
2023/08/26 15:38:15;;;;;;;;;;;;;;;21.19;64.34277;101055.5;;;;-79
2023/08/26 15:43:15;;;;;;;;;;;;;;;21.47;61.63672;101052.8;;;;-80
2023/08/26 15:48:15;;;;;;;;;;;;;;;21.55;61.68164;101055.3;;;;-79
2023/08/26 15:53:17;;;;;;;;;;;;;;;21.25;62.88379;101062.1;;;;-79
2023/08/26 15:58:16;;;;;;;;;;;;;;;21.15;62.50391;101067.9;;;;-80
2023/08/26 16:03:18;;;;;;;;;;;;;;;20.95;62.35059;101064.8;;;;-79
2023/08/26 16:06:51;;;;;;;3.4;1.2;;;;;;;;;;;;;-81
2023/08/26 16:08:17;;;;;;;;;;;;;;;20.56;61.64844;101065.4;;;;-82
2023/08/26 16:13:15;;;;;;;;;;;;;;;20.35;61.99414;101064.8;;;;-80
2023/08/26 16:18:16;;;;;;;;;;;;;;;20.45;63.04395;101066.7;;;;-80
2023/08/26 16:23:15;;;;;;;;;;;;;;;20.48;63.00098;101061.5;;;;-81
2023/08/26 16:28:15;;;;;;;;;;;;;;;20.26;62.44727;101057.7;;;;-80
2023/08/26 16:33:15;;;;;;;;;;;;;;;20.39;62.97949;101058.5;;;;-79
2023/08/26 16:36:55;;;;;;;62.8;37.8;;;;;;;;;;;;;-79
2023/08/26 16:38:15;;;;;;;;;;;;;;;20.44;63.66895;101062;;;;-80
2023/08/26 16:43:15;;;;;;;;;;;;;;;20.42;62.50391;101061.3;;;;-79
2023/08/26 16:48:15;;;;;;;;;;;;;;;20.28;63.34961;101059.1;;;;-79
2023/08/26 16:53:15;;;;;;;;;;;;;;;20.19;66.01758;101072.6;;;;-80
2023/08/26 16:58:15;;;;;;;;;;;;;;;20.01;68.53418;101085;;;;-81
2023/08/26 17:03:18;;;;;;;;;;;;;;;20.13;68.10938;101075.6;;;;-80
2023/08/26 17:07:00;;;;;;;3.8;1.3;;;;;;;;;;;;;-80
2023/08/26 17:08:16;;;;;;;;;;;;;;;19.97;67.75684;101027.9;;;;-76
2023/08/26 17:13:15;;;;;;;;;;;;;;;20.21;68.93945;101064.7;;;;-78
2023/08/26 17:18:18;;;;;;;;;;;;;;;20.07;71.0957;101087.5;;;;-79
2023/08/26 17:23:15;;;;;;;;;;;;;;;19.2;81.83789;101115.2;;;;-79
2023/08/26 17:28:15;;;;;;;;;;;;;;;18.06;72.07324;101092.9;;;;-80
2023/08/26 17:33:16;;;;;;;;;;;;;;;17.98;80.83789;101093.8;;;;-79
2023/08/26 17:37:02;;;;;;;3.3;1.4;;;;;;;;;;;;;-81
2023/08/26 17:38:16;;;;;;;;;;;;;;;17.61;82.70313;101084.6;;;;-80
2023/08/26 17:43:16;;;;;;;;;;;;;;;17.5;85.48047;101084;;;;-79
2023/08/26 17:48:16;;;;;;;;;;;;;;;17.41;86.58301;101085.2;;;;-80
2023/08/26 17:53:15;;;;;;;;;;;;;;;17.29;88.96191;101076.5;;;;-79
2023/08/26 17:58:16;;;;;;;;;;;;;;;17.25;90.71094;101078.9;;;;-80
2023/08/26 18:03:16;;;;;;;;;;;;;;;17.14;93.80078;101074.5;;;;-80
2023/08/26 18:07:08;;;;;;;7.1;3.1;;;;;;;;;;;;;-79
2023/08/26 18:08:16;;;;;;;;;;;;;;;17.02;96.14551;101069.5;;;;-81
2023/08/26 18:13:16;;;;;;;;;;;;;;;16.93;96.57324;101071.9;;;;-79
2023/08/26 18:18:16;;;;;;;;;;;;;;;16.81;96.9248;101077.5;;;;-80
2023/08/26 18:23:16;;;;;;;;;;;;;;;16.76;96.625;101074.6;;;;-80
2023/08/26 18:28:15;;;;;;;;;;;;;;;16.7;97.42578;101080.8;;;;-80
2023/08/26 18:33:16;;;;;;;;;;;;;;;16.66;97.3623;101083.5;;;;-80
2023/08/26 18:37:08;;;;;;;5.1;2.4;;;;;;;;;;;;;-79
2023/08/26 18:38:21;;;;;;;;;;;;;;;16.68;97.85742;101089.4;;;;-80
2023/08/26 18:43:15;;;;;;;;;;;;;;;16.58;97.54688;101088.3;;;;-77
2023/08/26 18:48:19;;;;;;;;;;;;;;;16.53;98.92969;101094.3;;;;-79
2023/08/26 18:53:16;;;;;;;;;;;;;;;16.43;99.59863;101095.3;;;;-80
2023/08/26 18:58:15;;;;;;;;;;;;;;;16.41;99.7959;101089.7;;;;-80
2023/08/26 19:03:16;;;;;;;;;;;;;;;16.32;100;101096.8;;;;-79
2023/08/26 19:07:11;;;;;;;7.2;4.8;;;;;;;;;;;;;-79
2023/08/26 19:08:16;;;;;;;;;;;;;;;16.22;100;101094;;;;-78
2023/08/26 19:13:16;;;;;;;;;;;;;;;16.14;100;101089.2;;;;-79
2023/08/26 19:18:16;;;;;;;;;;;;;;;16.1;100;101097.5;;;;-80
2023/08/26 19:23:15;;;;;;;;;;;;;;;16.05;100;101100.8;;;;-80
2023/08/26 19:28:15;;;;;;;;;;;;;;;15.92;100;101096.2;;;;-79
2023/08/26 19:33:16;;;;;;;;;;;;;;;15.78;100;101096.1;;;;-80
2023/08/26 19:37:13;;;;;;;7.8;4.7;;;;;;;;;;;;;-78
2023/08/26 19:38:15;;;;;;;;;;;;;;;15.7;100;101095.6;;;;-80
2023/08/26 19:43:15;;;;;;;;;;;;;;;15.62;100;101101.2;;;;-80
2023/08/26 19:48:15;;;;;;;;;;;;;;;15.51;100;101119.1;;;;-79
2023/08/26 19:53:18;;;;;;;;;;;;;;;15.44;100;101110.8;;;;-81
2023/08/26 19:58:16;;;;;;;;;;;;;;;15.44;100;101107.2;;;;-78
2023/08/26 20:03:15;;;;;;;;;;;;;;;15.4;100;101106.4;;;;-79
2023/08/26 20:07:16;;;;;;;10.2;6.5;;;;;;;;;;;;;-79
2023/08/26 20:08:15;;;;;;;;;;;;;;;15.39;100;101111.4;;;;-80
2023/08/26 20:13:15;;;;;;;;;;;;;;;15.38;100;101105.9;;;;-79
2023/08/26 20:18:15;;;;;;;;;;;;;;;15.34;100;101104.5;;;;-80
2023/08/26 20:23:15;;;;;;;;;;;;;;;15.29;100;101096.5;;;;-79
2023/08/26 20:28:15;;;;;;;;;;;;;;;15.29;100;101100.9;;;;-79
2023/08/26 20:33:16;;;;;;;;;;;;;;;15.29;100;101090.6;;;;-80
2023/08/26 20:37:18;;;;;;;10.3;6.7;;;;;;;;;;;;;-80
2023/08/26 20:38:15;;;;;;;;;;;;;;;15.36;100;101090.9;;;;-79
2023/08/26 20:43:18;;;;;;;;;;;;;;;15.37;100;101090.9;;;;-80
2023/08/26 20:48:15;;;;;;;;;;;;;;;15.3;100;101097.1;;;;-78
2023/08/26 20:53:16;;;;;;;;;;;;;;;15.21;100;101090.6;;;;-78
2023/08/26 20:58:16;;;;;;;;;;;;;;;15.1;100;101088.4;;;;-80
2023/08/26 21:03:18;;;;;;;;;;;;;;;15.06;100;101092.1;;;;-80
2023/08/26 21:07:21;;;;;;;13.8;8.3;;;;;;;;;;;;;-80
2023/08/26 21:08:16;;;;;;;;;;;;;;;15.04;100;101089;;;;-79
2023/08/26 21:13:16;;;;;;;;;;;;;;;15;100;101085.4;;;;-77
2023/08/26 21:18:17;;;;;;;;;;;;;;;14.94;100;101082.8;;;;-79
2023/08/26 21:23:15;;;;;;;;;;;;;;;14.89;100;101084.8;;;;-79
2023/08/26 21:28:16;;;;;;;;;;;;;;;14.82;100;101075.9;;;;-79
2023/08/26 21:33:15;;;;;;;;;;;;;;;14.75;100;101076.5;;;;-79
2023/08/26 21:38:17;;;;;;;;;;;;;;;14.72;100;101069.6;;;;-80
2023/08/26 21:43:18;;;;;;;;;;;;;;;14.68;100;101061.1;;;;-77
2023/08/26 21:48:15;;;;;;;;;;;;;;;14.66;100;101065.2;;;;-78
2023/08/26 21:53:16;;;;;;;;;;;;;;;14.54;100;101063.3;;;;-79
2023/08/26 21:58:16;;;;;;;;;;;;;;;14.44;100;101053;;;;-79
2023/08/26 22:03:20;;;;;;;;;;;;;;;14.47;100;101057;;;;-79
2023/08/26 22:07:25;;;;;;;14.5;9.5;;;;;;;;;;;;;-79
2023/08/26 22:08:15;;;;;;;;;;;;;;;14.43;100;101062;;;;-79
2023/08/26 22:13:16;;;;;;;;;;;;;;;14.39;100;101064.3;;;;-80
2023/08/26 22:18:16;;;;;;;;;;;;;;;14.36;100;101063.6;;;;-78
2023/08/26 22:23:15;;;;;;;;;;;;;;;14.28;100;101054.8;;;;-78
2023/08/26 22:28:16;;;;;;;;;;;;;;;14.25;100;101056.5;;;;-78
2023/08/26 22:33:18;;;;;;;;;;;;;;;14.21;100;101058;;;;-80
2023/08/26 22:37:28;;;;;;;16.1;10.3;;;;;;;;;;;;;-78
2023/08/26 22:38:16;;;;;;;;;;;;;;;14.2;100;101052.1;;;;-78
2023/08/26 22:43:15;;;;;;;;;;;;;;;14.17;100;101052.1;;;;-79
2023/08/26 22:48:15;;;;;;;;;;;;;;;14.13;100;101049.2;;;;-79
2023/08/26 22:53:15;;;;;;;;;;;;;;;14.09;100;101048.8;;;;-79
2023/08/26 22:58:15;;;;;;;;;;;;;;;14.04;100;101045.3;;;;-82
2023/08/26 23:03:18;;;;;;;;;;;;;;;14.01;100;101035.9;;;;-78
2023/08/26 23:07:31;;;;;;;19.4;11.8;;;;;;;;;;;;;-77
2023/08/26 23:08:15;;;;;;;;;;;;;;;13.95;100;101029.3;;;;-79
2023/08/26 23:13:15;;;;;;;;;;;;;;;13.93;100;101020.9;;;;-79
2023/08/26 23:18:16;;;;;;;;;;;;;;;13.98;100;101010.3;;;;-79
2023/08/26 23:23:15;;;;;;;;;;;;;;;14.03;100;101003.1;;;;-79
2023/08/26 23:28:16;;;;;;;;;;;;;;;14.06;100;101000.2;;;;-78
2023/08/26 23:33:16;;;;;;;;;;;;;;;14.07;100;100996.7;;;;-80
2023/08/26 23:37:32;;;;;;;18.5;11.7;;;;;;;;;;;;;-78
2023/08/26 23:38:15;;;;;;;;;;;;;;;14.05;100;100995.1;;;;-79
2023/08/26 23:43:16;;;;;;;;;;;;;;;14.03;100;100998.6;;;;-80
2023/08/26 23:48:18;;;;;;;;;;;;;;;14.03;100;100989.6;;;;-79
2023/08/26 23:53:16;;;;;;;;;;;;;;;13.98;100;100985.7;;;;-79
2023/08/26 23:58:18;;;;;;;;;;;;;;;13.96;100;100984.7;;;;-79
